createdAt,value
2023-05-02T00:01:19.696Z,13.50
2023-05-02T00:03:46.720Z,13.50
2023-05-02T00:06:13.813Z,13.50
2023-05-02T00:08:40.984Z,13.40
2023-05-02T00:11:07.887Z,13.50
2023-05-02T00:13:35.108Z,13.40
2023-05-02T00:16:02.122Z,13.50
2023-05-02T00:18:29.060Z,13.50
2023-05-02T00:20:56.388Z,13.50
2023-05-02T00:23:23.423Z,13.40
2023-05-02T00:25:50.386Z,13.40
2023-05-02T00:28:17.309Z,13.30
2023-05-02T00:30:45.522Z,13.30
2023-05-02T00:33:13.405Z,13.30
2023-05-02T00:35:40.529Z,13.30
2023-05-02T00:38:07.538Z,13.30
2023-05-02T00:40:47.048Z,13.30
2023-05-02T00:43:14.917Z,13.30
2023-05-02T00:45:43.251Z,13.30
2023-05-02T00:48:10.496Z,13.20
2023-05-02T00:50:42.139Z,13.20
2023-05-02T00:53:09.905Z,13.20
2023-05-02T00:55:37.152Z,13.30
2023-05-02T00:58:06.792Z,13.30
2023-05-02T01:01:08.509Z,13.20
2023-05-02T01:04:00.475Z,13.20
2023-05-02T01:06:42.737Z,13.20
2023-05-02T01:09:42.474Z,13.20
2023-05-02T01:12:36.577Z,13.20
2023-05-02T01:15:06.391Z,13.30
2023-05-02T01:17:33.454Z,13.30
2023-05-02T01:20:03.953Z,13.30
2023-05-02T01:22:30.945Z,13.40
2023-05-02T01:25:06.744Z,13.50
2023-05-02T01:28:05.602Z,13.40
2023-05-02T01:30:34.015Z,13.50
2023-05-02T01:33:01.751Z,13.50
2023-05-02T01:35:28.694Z,13.50
2023-05-02T01:37:56.163Z,13.50
2023-05-02T01:40:23.337Z,13.40
2023-05-02T01:42:51.320Z,13.50
2023-05-02T01:45:18.740Z,13.50
2023-05-02T01:47:45.848Z,13.40
2023-05-02T01:50:16.157Z,13.40
2023-05-02T01:52:43.638Z,13.40
2023-05-02T01:55:13.806Z,13.40
2023-05-02T01:57:41.391Z,13.20
2023-05-02T02:00:09.031Z,13.20
2023-05-02T02:02:36.113Z,13.30
2023-05-02T02:05:04.827Z,13.40
2023-05-02T02:07:31.686Z,13.40
2023-05-02T02:09:58.874Z,13.50
2023-05-02T02:12:47.752Z,13.50
2023-05-02T02:15:26.238Z,13.40
2023-05-02T02:18:18.477Z,13.40
2023-05-02T02:20:45.646Z,13.40
2023-05-02T02:23:12.606Z,13.40
2023-05-02T02:25:39.567Z,13.40
2023-05-02T02:28:07.629Z,13.40
2023-05-02T02:30:34.571Z,13.20
2023-05-02T02:33:01.607Z,13.30
2023-05-02T02:35:56.274Z,13.30
2023-05-02T02:38:47.598Z,13.30
2023-05-02T02:41:26.914Z,13.30
2023-05-02T02:44:26.441Z,13.30
2023-05-02T02:47:03.553Z,13.30
2023-05-02T02:49:43.301Z,13.20
2023-05-02T02:52:11.305Z,13.10
2023-05-02T02:54:53.489Z,13.00
2023-05-02T02:57:51.581Z,13.00
2023-05-02T03:00:22.732Z,13.10
2023-05-02T03:02:49.666Z,13.10
2023-05-02T03:05:16.618Z,13.10
2023-05-02T03:07:43.671Z,13.00
2023-05-02T03:10:10.729Z,13.10
2023-05-02T03:12:37.693Z,13.10
2023-05-02T03:15:30.621Z,13.10
2023-05-02T03:17:57.621Z,13.00
2023-05-02T03:20:24.628Z,13.00
2023-05-02T03:22:51.559Z,13.00
2023-05-02T03:25:18.506Z,12.90
2023-05-02T03:27:45.497Z,12.90
2023-05-02T03:30:12.548Z,12.90
2023-05-02T03:32:39.531Z,12.90
2023-05-02T03:35:07.074Z,12.90
2023-05-02T03:37:34.910Z,12.90
2023-05-02T03:40:02.213Z,12.90
2023-05-02T03:42:29.391Z,12.90
2023-05-02T03:44:56.684Z,12.90
2023-05-02T03:47:23.630Z,12.90
2023-05-02T03:49:50.521Z,12.90
2023-05-02T03:52:17.431Z,12.80
2023-05-02T03:54:44.360Z,12.70
2023-05-02T03:57:11.326Z,12.80
2023-05-02T03:59:39.110Z,12.80
2023-05-02T04:02:06.056Z,12.90
2023-05-02T04:04:33.112Z,12.80
2023-05-02T04:07:00.176Z,12.80
2023-05-02T04:09:27.124Z,12.80
2023-05-02T04:11:54.334Z,12.90
2023-05-02T04:14:21.269Z,13.00
2023-05-02T04:16:51.847Z,12.90
2023-05-02T04:19:19.229Z,12.90
2023-05-02T04:21:46.122Z,12.90
2023-05-02T04:24:13.827Z,13.00
2023-05-02T04:26:40.954Z,13.00
2023-05-02T04:29:08.003Z,12.90
2023-05-02T04:31:34.996Z,12.80
2023-05-02T04:34:02.047Z,12.90
2023-05-02T04:36:28.946Z,12.90
2023-05-02T04:38:55.875Z,13.00
2023-05-02T04:41:22.833Z,12.90
2023-05-02T04:43:49.725Z,12.90
2023-05-02T04:46:17.776Z,13.00
2023-05-02T04:48:44.847Z,13.10
2023-05-02T04:51:11.842Z,13.10
2023-05-02T04:53:38.828Z,13.10
2023-05-02T04:56:06.191Z,13.20
2023-05-02T04:58:33.971Z,13.10
2023-05-02T05:01:00.876Z,13.10
2023-05-02T05:03:28.234Z,13.10
2023-05-02T05:05:55.220Z,13.00
2023-05-02T05:08:22.165Z,13.00
2023-05-02T05:10:49.156Z,13.20
2023-05-02T05:13:16.258Z,13.80
2023-05-02T05:15:43.208Z,14.00
2023-05-02T05:18:10.243Z,14.10
2023-05-02T05:20:37.213Z,13.80
2023-05-02T05:23:04.170Z,14.40
2023-05-02T05:25:31.181Z,15.90
2023-05-02T05:28:00.007Z,16.70
2023-05-02T05:30:26.974Z,17.10
2023-05-02T05:32:54.006Z,17.40
2023-05-02T05:35:20.977Z,18.70
2023-05-02T05:37:48.025Z,19.60
2023-05-02T05:40:14.962Z,21.40
2023-05-02T05:42:41.967Z,22.50
2023-05-02T05:45:09.651Z,22.80
2023-05-02T05:47:36.623Z,24.80
2023-05-02T05:50:03.991Z,24.80
2023-05-02T05:52:31.004Z,25.10
2023-05-02T05:54:57.885Z,25.50
2023-05-02T05:57:24.762Z,25.30
2023-05-02T05:59:52.038Z,26.10
2023-05-02T06:02:19.096Z,27.10
2023-05-02T06:04:46.180Z,26.50
2023-05-02T06:07:13.185Z,26.60
2023-05-02T06:09:40.068Z,27.10
2023-05-02T06:12:07.020Z,27.80
2023-05-02T06:14:33.942Z,27.90
2023-05-02T06:17:00.862Z,28.00
2023-05-02T06:19:27.802Z,28.20
2023-05-02T06:21:54.692Z,27.70
2023-05-02T06:24:21.594Z,29.00
2023-05-02T06:26:48.533Z,28.80
2023-05-02T06:29:15.452Z,28.70
2023-05-02T06:31:42.369Z,29.20
2023-05-02T06:34:09.304Z,28.60
2023-05-02T06:36:36.244Z,28.40
2023-05-02T06:39:03.140Z,27.90
2023-05-02T06:41:30.006Z,27.90
2023-05-02T06:43:56.859Z,27.80
2023-05-02T06:46:23.721Z,28.90
2023-05-02T06:48:50.615Z,29.10
2023-05-02T06:51:17.456Z,29.40
2023-05-02T06:53:44.293Z,29.50
2023-05-02T06:56:13.406Z,29.40
2023-05-02T06:58:53.953Z,29.30
2023-05-02T07:01:21.169Z,29.30
2023-05-02T07:03:49.005Z,29.00
2023-05-02T07:06:15.931Z,29.10
2023-05-02T07:08:43.249Z,29.60
2023-05-02T07:11:16.967Z,30.10
2023-05-02T07:13:44.251Z,30.00
2023-05-02T07:16:11.582Z,29.90
2023-05-02T07:18:41.562Z,29.90
2023-05-02T07:21:09.151Z,29.30
2023-05-02T07:23:39.561Z,30.10
2023-05-02T07:26:07.963Z,30.60
2023-05-02T07:28:34.873Z,30.90
2023-05-02T07:31:01.765Z,31.30
2023-05-02T07:33:28.634Z,31.40
2023-05-02T07:35:56.142Z,31.30
2023-05-02T07:38:22.985Z,31.80
2023-05-02T07:40:49.860Z,31.00
2023-05-02T07:43:16.962Z,30.00
2023-05-02T07:45:43.922Z,31.20
2023-05-02T07:48:10.828Z,31.30
2023-05-02T07:50:37.820Z,31.70
2023-05-02T07:53:04.720Z,30.80
2023-05-02T07:55:31.585Z,31.20
2023-05-02T07:57:58.497Z,30.60
2023-05-02T08:00:25.346Z,31.10
2023-05-02T08:02:52.326Z,30.10
2023-05-02T08:05:19.399Z,30.10
2023-05-02T08:07:46.358Z,31.30
2023-05-02T08:10:13.238Z,31.20
2023-05-02T08:12:41.122Z,30.60
2023-05-02T08:15:08.940Z,30.80
2023-05-02T08:17:36.380Z,31.00
2023-05-02T08:20:03.495Z,31.00
2023-05-02T08:22:30.435Z,30.60
2023-05-02T08:24:57.313Z,30.80
2023-05-02T08:27:24.194Z,30.90
2023-05-02T08:29:51.058Z,30.70
2023-05-02T08:32:18.011Z,30.30
2023-05-02T08:34:44.935Z,30.30
2023-05-02T08:37:11.811Z,30.70
2023-05-02T08:39:38.736Z,30.60
2023-05-02T08:42:08.817Z,29.60
2023-05-02T08:44:35.820Z,29.70
2023-05-02T08:47:03.137Z,30.30
2023-05-02T08:49:31.740Z,30.40
2023-05-02T08:52:00.136Z,30.10
2023-05-02T08:54:27.098Z,30.30
2023-05-02T08:56:57.221Z,30.40
2023-05-02T08:59:24.135Z,31.00
2023-05-02T09:01:55.161Z,30.50
2023-05-02T09:04:25.073Z,30.50
2023-05-02T09:06:52.149Z,30.30
2023-05-02T09:09:19.513Z,30.10
2023-05-02T09:11:47.497Z,30.70
2023-05-02T09:14:15.477Z,30.40
2023-05-02T09:16:42.459Z,30.20
2023-05-02T09:19:09.608Z,30.50
2023-05-02T09:21:40.729Z,30.10
2023-05-02T09:24:18.944Z,30.80
2023-05-02T09:27:06.190Z,30.70
2023-05-02T09:29:34.028Z,29.90
2023-05-02T09:32:01.212Z,29.20
2023-05-02T09:34:28.315Z,29.30
2023-05-02T09:36:55.248Z,29.40
2023-05-02T09:39:26.531Z,29.20
2023-05-02T09:41:54.092Z,29.00
2023-05-02T09:44:25.613Z,29.00
2023-05-02T09:46:56.350Z,29.00
2023-05-02T09:49:45.667Z,29.30
2023-05-02T09:52:18.367Z,29.10
2023-05-02T09:54:45.328Z,28.60
2023-05-02T09:57:12.253Z,28.30
2023-05-02T09:59:42.201Z,27.80
2023-05-02T10:02:09.191Z,27.70
2023-05-02T10:04:36.111Z,27.30
2023-05-02T10:07:03.302Z,27.20
2023-05-02T10:09:30.796Z,26.70
2023-05-02T10:11:57.690Z,26.50
2023-05-02T10:14:26.753Z,26.60
2023-05-02T10:17:14.576Z,26.20
2023-05-02T10:20:04.627Z,26.00
2023-05-02T10:22:36.242Z,26.10
2023-05-02T10:25:04.114Z,26.80
2023-05-02T10:27:31.508Z,27.00
2023-05-02T10:30:01.538Z,27.10
2023-05-02T10:32:29.002Z,27.20
2023-05-02T10:35:03.044Z,27.30
2023-05-02T10:37:30.480Z,27.20
2023-05-02T10:39:57.377Z,27.00
2023-05-02T10:42:24.271Z,26.50
2023-05-02T10:44:51.306Z,26.40
2023-05-02T10:47:22.088Z,25.60
2023-05-02T10:49:59.843Z,25.60
2023-05-02T10:52:34.899Z,25.80
2023-05-02T10:55:21.301Z,25.50
2023-05-02T10:57:57.585Z,25.90
2023-05-02T11:00:28.915Z,25.30
2023-05-02T11:02:56.042Z,25.90
2023-05-02T11:05:23.876Z,26.10
2023-05-02T11:07:51.140Z,25.60
2023-05-02T11:10:18.384Z,25.30
2023-05-02T11:12:55.623Z,25.60
2023-05-02T11:15:28.464Z,25.10
2023-05-02T11:18:11.363Z,25.30
2023-05-02T11:20:43.520Z,25.10
2023-05-02T11:23:16.580Z,25.10
2023-05-02T11:25:56.796Z,25.00
2023-05-02T11:28:44.698Z,25.10
2023-05-02T11:31:29.988Z,25.00
2023-05-02T11:34:03.408Z,25.00
2023-05-02T11:36:31.366Z,25.00
2023-05-02T11:38:58.290Z,24.90
2023-05-02T11:41:39.541Z,24.80
2023-05-02T11:44:06.434Z,24.90
2023-05-02T11:46:34.057Z,25.00
2023-05-02T11:49:01.241Z,24.90
2023-05-02T11:51:28.169Z,24.80
2023-05-02T11:53:55.064Z,24.80
2023-05-02T11:56:25.362Z,24.80
2023-05-02T11:59:02.610Z,24.80
2023-05-02T12:01:29.626Z,24.60
2023-05-02T12:04:07.941Z,24.50
2023-05-02T12:06:35.311Z,24.80
2023-05-02T12:09:14.231Z,24.70
2023-05-02T12:11:41.098Z,24.80
2023-05-02T12:14:08.007Z,24.50
2023-05-02T12:16:34.940Z,24.60
2023-05-02T12:19:01.929Z,24.80
2023-05-02T12:21:29.211Z,24.90
2023-05-02T12:23:56.565Z,24.80
2023-05-02T12:26:26.275Z,25.00
2023-05-02T12:28:53.270Z,24.70
2023-05-02T12:31:20.350Z,24.70
2023-05-02T12:33:47.615Z,24.70
2023-05-02T12:36:14.493Z,24.80
2023-05-02T12:38:41.380Z,24.70
2023-05-02T12:41:08.262Z,24.80
2023-05-02T12:43:48.441Z,25.10
2023-05-02T12:46:15.363Z,25.30
2023-05-02T12:48:42.343Z,25.40
2023-05-02T12:51:23.766Z,25.30
2023-05-02T12:53:50.675Z,25.30
2023-05-02T12:56:17.530Z,25.40
2023-05-02T12:58:46.703Z,25.50
2023-05-02T13:01:14.596Z,25.50
2023-05-02T13:03:42.614Z,25.20
2023-05-02T13:06:09.945Z,25.20
2023-05-02T13:08:36.978Z,25.30
2023-05-02T13:11:04.203Z,25.30
2023-05-02T13:13:31.289Z,25.20
2023-05-02T13:15:58.246Z,25.30
2023-05-02T13:18:25.172Z,25.40
2023-05-02T13:20:52.064Z,25.10
2023-05-02T13:23:18.960Z,25.00
2023-05-02T13:25:45.810Z,25.00
2023-05-02T13:28:12.660Z,25.00
2023-05-02T13:30:39.519Z,24.90
2023-05-02T13:33:06.539Z,24.90
2023-05-02T13:35:35.182Z,25.00
2023-05-02T13:38:02.704Z,25.10
2023-05-02T13:40:29.600Z,25.10
2023-05-02T13:42:56.482Z,25.20
2023-05-02T13:45:23.425Z,25.20
2023-05-02T13:47:50.381Z,25.30
2023-05-02T13:50:18.087Z,25.40
2023-05-02T13:52:47.712Z,25.40
2023-05-02T13:55:16.091Z,25.50
2023-05-02T13:57:42.989Z,25.30
2023-05-02T14:00:10.724Z,25.20
2023-05-02T14:02:38.686Z,25.30
2023-05-02T14:05:06.294Z,25.40
2023-05-02T14:07:33.216Z,25.50
2023-05-02T14:10:00.412Z,25.50
2023-05-02T14:12:27.614Z,25.40
2023-05-02T14:14:54.526Z,25.20
2023-05-02T14:17:21.419Z,25.30
2023-05-02T14:19:48.318Z,25.30
2023-05-02T14:22:15.204Z,25.30
2023-05-02T14:24:42.153Z,25.20
2023-05-02T14:27:09.084Z,25.10
2023-05-02T14:29:35.932Z,25.20
2023-05-02T14:32:02.877Z,24.80
2023-05-02T14:34:29.788Z,24.80
2023-05-02T14:36:56.633Z,25.00
2023-05-02T14:39:23.567Z,24.90
2023-05-02T14:41:50.465Z,24.70
2023-05-02T14:44:17.374Z,24.60
2023-05-02T14:46:44.291Z,24.70
2023-05-02T14:49:11.201Z,24.70
2023-05-02T14:51:38.999Z,24.50
2023-05-02T14:54:06.064Z,24.50
2023-05-02T14:56:33.534Z,24.50
2023-05-02T14:59:00.460Z,24.20
2023-05-02T15:01:27.433Z,24.00
2023-05-02T15:04:05.774Z,24.10
2023-05-02T15:06:34.185Z,24.60
2023-05-02T15:09:01.602Z,24.50
2023-05-02T15:11:28.531Z,24.60
2023-05-02T15:13:58.358Z,24.40
2023-05-02T15:16:26.284Z,24.10
2023-05-02T15:18:53.223Z,24.20
2023-05-02T15:21:20.191Z,24.10
2023-05-02T15:23:47.073Z,24.30
2023-05-02T15:26:13.992Z,24.00
2023-05-02T15:28:40.976Z,23.70
2023-05-02T15:31:07.892Z,23.50
2023-05-02T15:33:34.883Z,23.50
2023-05-02T15:36:01.779Z,23.60
2023-05-02T15:38:28.726Z,23.40
2023-05-02T15:40:57.201Z,23.40
2023-05-02T15:43:24.273Z,23.80
2023-05-02T15:45:54.676Z,24.00
2023-05-02T15:48:21.953Z,23.70
2023-05-02T15:50:48.863Z,23.80
2023-05-02T15:53:16.476Z,23.80
2023-05-02T15:55:43.931Z,23.90
2023-05-02T15:58:10.837Z,23.70
2023-05-02T16:00:37.814Z,23.60
2023-05-02T16:03:04.960Z,23.40
2023-05-02T16:05:32.886Z,23.30
2023-05-02T16:07:59.825Z,23.20
2023-05-02T16:10:27.133Z,23.10
2023-05-02T16:12:54.134Z,22.80
2023-05-02T16:15:21.367Z,23.00
2023-05-02T16:17:48.912Z,22.70
2023-05-02T16:20:16.919Z,22.80
2023-05-02T16:22:47.402Z,23.00
2023-05-02T16:25:14.918Z,22.70
2023-05-02T16:27:41.847Z,22.40
2023-05-02T16:30:09.522Z,22.30
2023-05-02T16:32:39.494Z,22.20
2023-05-02T16:35:07.205Z,22.20
2023-05-02T16:37:34.692Z,22.00
2023-05-02T16:40:01.979Z,22.00
2023-05-02T16:42:29.424Z,22.00
2023-05-02T16:44:56.855Z,21.90
2023-05-02T16:47:24.213Z,21.90
2023-05-02T16:49:55.553Z,22.20
2023-05-02T16:52:22.584Z,21.90
2023-05-02T16:54:49.514Z,21.90
2023-05-02T16:57:16.606Z,22.00
2023-05-02T16:59:43.506Z,21.90
2023-05-02T17:02:10.462Z,21.80
2023-05-02T17:04:37.355Z,21.50
2023-05-02T17:07:04.267Z,21.40
2023-05-02T17:09:31.132Z,21.40
2023-05-02T17:11:58.041Z,21.20
2023-05-02T17:14:25.619Z,21.10
2023-05-02T17:16:52.558Z,21.20
2023-05-02T17:19:19.536Z,21.00
2023-05-02T17:21:46.470Z,21.00
2023-05-02T17:24:13.370Z,20.80
2023-05-02T17:26:40.695Z,20.90
2023-05-02T17:29:07.602Z,20.60
2023-05-02T17:31:34.621Z,20.50
2023-05-02T17:34:01.575Z,20.40
2023-05-02T17:36:28.477Z,20.40
2023-05-02T17:38:55.359Z,20.40
2023-05-02T17:41:22.403Z,20.30
2023-05-02T17:43:49.305Z,20.30
2023-05-02T17:46:16.226Z,20.10
2023-05-02T17:48:43.991Z,20.10
2023-05-02T17:51:11.713Z,20.10
2023-05-02T17:53:39.130Z,19.90
2023-05-02T17:56:06.555Z,19.90
2023-05-02T17:58:33.875Z,19.90
2023-05-02T18:01:09.179Z,19.80
2023-05-02T18:03:45.118Z,19.70
2023-05-02T18:06:16.310Z,19.70
2023-05-02T18:08:43.788Z,19.70
2023-05-02T18:11:18.872Z,19.50
2023-05-02T18:13:51.480Z,19.60
2023-05-02T18:16:22.215Z,19.60
2023-05-02T18:19:02.032Z,19.60
2023-05-02T18:21:32.691Z,19.50
2023-05-02T18:24:02.783Z,19.30
2023-05-02T18:26:30.380Z,19.30
2023-05-02T18:29:03.782Z,19.30
2023-05-02T18:31:34.514Z,19.30
2023-05-02T18:34:01.994Z,19.20
2023-05-02T18:36:29.617Z,19.20
2023-05-02T18:39:03.287Z,19.20
2023-05-02T18:41:30.689Z,19.10
2023-05-02T18:43:59.403Z,19.10
2023-05-02T18:46:28.021Z,19.10
2023-05-02T18:48:55.177Z,19.00
2023-05-02T18:51:22.270Z,19.00
2023-05-02T18:53:49.492Z,18.80
2023-05-02T18:56:16.944Z,18.80
2023-05-02T18:58:44.502Z,18.80
2023-05-02T19:01:22.934Z,18.70
2023-05-02T19:03:59.437Z,18.60
2023-05-02T19:06:33.317Z,18.50
2023-05-02T19:09:00.902Z,18.50
2023-05-02T19:11:30.898Z,18.60
2023-05-02T19:13:57.777Z,18.50
2023-05-02T19:16:24.781Z,18.50
2023-05-02T19:18:51.799Z,18.40
2023-05-02T19:21:18.724Z,18.50
2023-05-02T19:23:46.000Z,18.40
2023-05-02T19:26:14.621Z,18.50
2023-05-02T19:28:42.152Z,18.50
2023-05-02T19:31:22.454Z,18.40
2023-05-02T19:33:49.857Z,18.40
2023-05-02T19:36:21.812Z,18.30
2023-05-02T19:38:58.723Z,18.30
2023-05-02T19:41:25.879Z,18.20
2023-05-02T19:43:55.416Z,18.10
2023-05-02T19:46:23.519Z,18.10
2023-05-02T19:48:51.034Z,18.10
2023-05-02T19:51:19.934Z,18.10
2023-05-02T19:53:46.846Z,18.10
2023-05-02T19:56:13.886Z,18.10
2023-05-02T19:58:40.818Z,18.00
2023-05-02T20:01:07.746Z,18.00
2023-05-02T20:03:35.407Z,18.00
2023-05-02T20:06:03.170Z,18.10
2023-05-02T20:08:33.231Z,18.00
2023-05-02T20:11:00.158Z,18.00
2023-05-02T20:13:27.189Z,18.10
2023-05-02T20:15:54.174Z,17.80
2023-05-02T20:18:21.419Z,17.70
2023-05-02T20:20:53.919Z,17.60
2023-05-02T20:23:20.926Z,17.60
2023-05-02T20:25:51.061Z,17.60
2023-05-02T20:28:18.123Z,17.60
2023-05-02T20:30:45.469Z,17.60
2023-05-02T20:33:15.937Z,17.50
2023-05-02T20:35:44.572Z,17.60
2023-05-02T20:38:16.661Z,17.70
2023-05-02T20:40:43.663Z,17.80
2023-05-02T20:43:10.678Z,17.80
2023-05-02T20:45:37.712Z,17.90
2023-05-02T20:48:07.569Z,18.00
2023-05-02T20:50:34.529Z,18.10
2023-05-02T20:53:02.625Z,18.00
2023-05-02T20:55:32.030Z,18.00
2023-05-02T20:57:58.967Z,18.00
2023-05-02T21:00:25.978Z,18.00
2023-05-02T21:02:53.166Z,17.80
2023-05-02T21:05:26.136Z,17.70
2023-05-02T21:07:59.036Z,17.50
2023-05-02T21:10:26.043Z,17.40
2023-05-02T21:12:53.154Z,17.50
2023-05-02T21:15:20.190Z,17.40
2023-05-02T21:17:48.074Z,17.20
2023-05-02T21:20:15.456Z,17.30
2023-05-02T21:22:45.580Z,17.30
2023-05-02T21:25:15.547Z,17.30
2023-05-02T21:27:45.262Z,17.40
2023-05-02T21:30:14.848Z,17.40
2023-05-02T21:32:42.682Z,17.20
2023-05-02T21:35:09.804Z,17.20
2023-05-02T21:37:37.911Z,17.10
2023-05-02T21:40:08.949Z,17.00
2023-05-02T21:42:37.052Z,17.10
2023-05-02T21:45:04.853Z,17.20
2023-05-02T21:47:33.277Z,17.20
2023-05-02T21:50:00.732Z,17.30
2023-05-02T21:52:30.852Z,17.30
2023-05-02T21:55:01.356Z,17.30
2023-05-02T21:57:36.456Z,17.30
2023-05-02T22:00:10.863Z,17.40
2023-05-02T22:02:42.131Z,17.40
2023-05-02T22:05:12.257Z,17.40
2023-05-02T22:07:42.985Z,17.40
2023-05-02T22:10:13.559Z,17.30
2023-05-02T22:12:41.354Z,17.30
2023-05-02T22:15:15.558Z,17.30
2023-05-02T22:17:43.609Z,17.40
2023-05-02T22:20:13.262Z,17.20
2023-05-02T22:22:44.169Z,17.40
2023-05-02T22:25:11.660Z,17.30
2023-05-02T22:27:38.719Z,17.30
2023-05-02T22:30:08.183Z,17.20
2023-05-02T22:32:35.357Z,17.20
2023-05-02T22:35:02.892Z,17.20
2023-05-02T22:37:29.894Z,17.20
2023-05-02T22:39:56.840Z,17.10
2023-05-02T22:42:24.159Z,17.10
2023-05-02T22:44:54.341Z,17.00
2023-05-02T22:47:53.488Z,17.00
2023-05-02T22:50:18.954Z,17.00
2023-05-02T22:52:46.600Z,17.00
2023-05-02T22:55:13.535Z,17.00
2023-05-02T22:57:40.584Z,17.00
2023-05-02T23:00:09.632Z,17.00
2023-05-02T23:02:36.874Z,17.00
2023-05-02T23:05:04.168Z,16.90
2023-05-02T23:07:31.090Z,16.90
2023-05-02T23:09:58.069Z,17.00
2023-05-02T23:12:25.008Z,17.10
2023-05-02T23:14:52.011Z,17.10
2023-05-02T23:17:19.014Z,17.20
2023-05-02T23:19:45.959Z,17.20
2023-05-02T23:22:13.093Z,17.10
2023-05-02T23:24:40.014Z,17.10
2023-05-02T23:27:06.955Z,17.00
2023-05-02T23:29:33.852Z,16.90
2023-05-02T23:32:01.039Z,16.80
2023-05-02T23:34:28.162Z,16.80
2023-05-02T23:36:55.114Z,16.70
2023-05-02T23:39:22.067Z,16.70
2023-05-02T23:41:49.014Z,16.70
2023-05-02T23:44:15.979Z,16.70
2023-05-02T23:46:42.988Z,16.60
2023-05-02T23:49:09.953Z,16.50
2023-05-02T23:51:36.896Z,16.50
2023-05-02T23:54:04.066Z,16.40
2023-05-02T23:56:31.222Z,16.40
2023-05-02T23:58:58.211Z,16.40
